createdAt,value
2023-05-19T00:04:14.648Z,101118.44
2023-05-19T00:09:16.708Z,101119.28
2023-05-19T00:14:18.650Z,101115.94
2023-05-19T00:19:20.438Z,101113.34
2023-05-19T00:24:22.185Z,101118.53
2023-05-19T00:29:23.835Z,101113.94
2023-05-19T00:34:25.558Z,101106.16
2023-05-19T00:39:27.186Z,101103.78
2023-05-19T00:44:28.921Z,101101.28
2023-05-19T00:49:30.719Z,101110.34
2023-05-19T00:54:33.918Z,101102.13
2023-05-19T00:59:35.675Z,101106.38
2023-05-19T01:04:39.463Z,101101.44
2023-05-19T01:09:41.344Z,101099.78
2023-05-19T01:14:43.600Z,101101.38
2023-05-19T01:19:51.146Z,101093.44
2023-05-19T01:25:17.843Z,101098.81
2023-05-19T01:30:41.045Z,101089.19
2023-05-19T01:35:44.098Z,101096.69
2023-05-19T01:40:47.656Z,101100.81
2023-05-19T01:45:49.424Z,101095.75
2023-05-19T01:50:51.371Z,101101.56
2023-05-19T01:55:54.613Z,101102.38
2023-05-19T02:01:11.350Z,101106.22
2023-05-19T02:06:31.296Z,101091.38
2023-05-19T02:11:38.086Z,101092.66
2023-05-19T02:16:41.173Z,101097.44
2023-05-19T02:21:42.789Z,101089.84
2023-05-19T02:26:44.460Z,101092.38
2023-05-19T02:31:46.377Z,101093.50
2023-05-19T02:36:49.879Z,101092.69
2023-05-19T02:41:51.601Z,101084.16
2023-05-19T02:46:53.447Z,101089.97
2023-05-19T02:51:55.803Z,101087.00
2023-05-19T02:56:58.491Z,101085.31
2023-05-19T03:02:01.765Z,101084.47
2023-05-19T03:07:06.126Z,101077.38
2023-05-19T03:12:08.096Z,101072.13
2023-05-19T03:17:10.636Z,101062.69
2023-05-19T03:22:12.307Z,101062.78
2023-05-19T03:27:13.951Z,101078.34
2023-05-19T03:32:16.139Z,101081.34
2023-05-19T03:37:18.095Z,101076.53
2023-05-19T03:42:20.323Z,101080.06
2023-05-19T03:47:22.134Z,101082.56
2023-05-19T03:52:26.544Z,101093.47
2023-05-19T03:57:34.076Z,101094.31
2023-05-19T04:02:35.971Z,101086.78
2023-05-19T04:07:37.896Z,101094.00
2023-05-19T04:12:39.528Z,101090.44
2023-05-19T04:17:41.236Z,101095.97
2023-05-19T04:22:42.863Z,101094.69
2023-05-19T04:27:44.518Z,101088.59
2023-05-19T04:32:46.240Z,101086.91
2023-05-19T04:37:48.436Z,101091.19
2023-05-19T04:42:54.050Z,101091.78
2023-05-19T04:47:58.158Z,101087.00
2023-05-19T04:53:00.209Z,101085.88
2023-05-19T04:58:02.444Z,101089.44
2023-05-19T05:03:05.147Z,101087.09
2023-05-19T05:08:07.488Z,101089.09
2023-05-19T05:13:15.304Z,101083.72
2023-05-19T05:18:18.065Z,101082.19
2023-05-19T05:23:20.497Z,101086.72
2023-05-19T05:28:24.109Z,101085.16
2023-05-19T05:33:27.330Z,101088.72
2023-05-19T05:38:29.529Z,101089.63
2023-05-19T05:43:31.892Z,101095.94
2023-05-19T05:48:37.751Z,101093.91
2023-05-19T05:53:43.116Z,101095.78
2023-05-19T05:58:45.369Z,101107.09
2023-05-19T06:03:47.290Z,101102.28
2023-05-19T06:08:55.045Z,101107.38
2023-05-19T06:13:58.397Z,101098.22
2023-05-19T06:19:32.541Z,101098.63
2023-05-19T06:24:34.190Z,101099.84
2023-05-19T06:29:36.035Z,101102.25
2023-05-19T06:34:41.010Z,101092.22
2023-05-19T06:39:42.726Z,101092.31
2023-05-19T06:44:44.438Z,101093.25
2023-05-19T06:49:50.707Z,101101.91
2023-05-19T06:54:52.654Z,101094.44
2023-05-19T06:59:54.316Z,101095.28
2023-05-19T07:04:57.427Z,101089.06
2023-05-19T07:09:59.931Z,101086.22
2023-05-19T07:15:03.047Z,101088.16
2023-05-19T07:20:12.291Z,101083.75
2023-05-19T07:25:14.244Z,101077.06
2023-05-19T07:30:15.970Z,101082.16
2023-05-19T07:35:17.619Z,101084.59
2023-05-19T07:40:19.372Z,101084.38
2023-05-19T07:45:21.041Z,101086.00
2023-05-19T07:50:22.820Z,101089.03
2023-05-19T07:55:24.501Z,101066.03
2023-05-19T08:00:26.325Z,101066.59
2023-05-19T08:05:28.049Z,101060.53
2023-05-19T08:10:29.837Z,101068.25
2023-05-19T08:15:31.586Z,101065.84
2023-05-19T08:20:34.126Z,101070.25
2023-05-19T08:25:36.295Z,101069.09
2023-05-19T08:30:38.044Z,101062.03
2023-05-19T08:35:39.640Z,101050.25
2023-05-19T08:40:46.564Z,101059.16
2023-05-19T08:45:48.336Z,101048.19
2023-05-19T08:51:22.430Z,101036.69
2023-05-19T08:56:25.208Z,101054.97
2023-05-19T09:01:28.867Z,101048.91
2023-05-19T09:06:33.506Z,101054.78
2023-05-19T09:11:37.554Z,101044.16
2023-05-19T09:16:39.443Z,101059.03
2023-05-19T09:21:41.414Z,101036.25
2023-05-19T09:26:43.167Z,101033.00
2023-05-19T09:31:51.977Z,101019.69
2023-05-19T09:36:54.101Z,101042.13
2023-05-19T09:41:58.463Z,101019.19
2023-05-19T09:47:00.245Z,101021.38
2023-05-19T09:52:05.915Z,101014.13
2023-05-19T09:57:08.549Z,101023.25
2023-05-19T10:02:17.696Z,100999.44
2023-05-19T10:07:19.656Z,100998.91
2023-05-19T10:12:21.613Z,100994.19
2023-05-19T10:17:25.230Z,100991.16
2023-05-19T10:22:28.408Z,100990.13
2023-05-19T10:27:30.543Z,100992.16
2023-05-19T10:32:33.129Z,100977.84
2023-05-19T10:37:57.603Z,100989.47
2023-05-19T10:43:17.926Z,100983.75
2023-05-19T10:48:20.081Z,100968.88
2023-05-19T10:53:22.854Z,100969.69
2023-05-19T10:58:46.409Z,100975.94
2023-05-19T11:03:53.467Z,100973.44
2023-05-19T11:14:26.579Z,100982.16
2023-05-19T11:19:28.435Z,100978.63
2023-05-19T11:24:44.474Z,100968.63
2023-05-19T11:29:46.656Z,100994.84
2023-05-19T11:34:49.471Z,100964.78
2023-05-19T11:39:52.229Z,100968.31
2023-05-19T11:44:56.740Z,100965.81
2023-05-19T11:49:58.947Z,100953.19
2023-05-19T11:55:01.555Z,100981.13
2023-05-19T12:00:09.000Z,100967.72
2023-05-19T12:05:21.695Z,100956.06
2023-05-19T12:10:27.476Z,100975.47
2023-05-19T12:15:29.139Z,100970.84
2023-05-19T12:20:32.500Z,100983.31
2023-05-19T12:25:34.545Z,100965.34
2023-05-19T12:30:36.776Z,100968.53
2023-05-19T12:35:38.746Z,100948.56
2023-05-19T12:40:40.508Z,100958.50
2023-05-19T12:45:42.718Z,100959.75
2023-05-19T12:50:45.106Z,100946.97
2023-05-19T12:55:46.956Z,100968.03
2023-05-19T13:00:49.825Z,100953.50
2023-05-19T13:05:51.735Z,100938.44
2023-05-19T13:10:53.558Z,100949.59
2023-05-19T13:15:55.477Z,100938.59
2023-05-19T13:20:57.078Z,100950.69
2023-05-19T13:25:59.372Z,100945.38
2023-05-19T13:31:01.057Z,100937.75
2023-05-19T13:36:03.011Z,100937.91
2023-05-19T13:41:04.608Z,100945.66
2023-05-19T13:46:06.332Z,100938.34
2023-05-19T13:51:08.014Z,100939.13
2023-05-19T13:56:09.712Z,100946.72
2023-05-19T14:01:11.358Z,100947.34
2023-05-19T14:06:13.051Z,100929.41
2023-05-19T14:11:19.617Z,100932.94
2023-05-19T14:16:22.851Z,100927.22
2023-05-19T14:21:24.742Z,100946.13
2023-05-19T14:26:28.603Z,100931.56
2023-05-19T14:31:31.026Z,100936.50
2023-05-19T14:36:35.102Z,100932.03
2023-05-19T14:41:36.758Z,100927.47
2023-05-19T14:46:38.491Z,100923.47
2023-05-19T14:51:40.374Z,100914.59
2023-05-19T14:56:42.014Z,100934.16
2023-05-19T15:01:43.767Z,100943.63
2023-05-19T15:06:48.161Z,100937.00
2023-05-19T15:11:54.249Z,100943.38
2023-05-19T15:16:55.972Z,100945.44
2023-05-19T15:21:57.736Z,100976.03
2023-05-19T15:26:59.530Z,100945.78
2023-05-19T15:32:01.525Z,100950.28
2023-05-19T15:37:03.214Z,100953.38
2023-05-19T15:42:04.859Z,100969.16
2023-05-19T15:47:06.489Z,100959.34
2023-05-19T15:52:09.277Z,100965.44
2023-05-19T15:57:10.972Z,100970.47
2023-05-19T16:02:12.827Z,100974.06
2023-05-19T16:07:16.712Z,100967.63
2023-05-19T16:12:18.352Z,100979.28
2023-05-19T16:17:20.019Z,100985.91
2023-05-19T16:22:24.653Z,100993.84
2023-05-19T16:27:26.495Z,100987.78
2023-05-19T16:32:28.193Z,100984.25
2023-05-19T16:37:29.852Z,100982.91
2023-05-19T16:42:32.297Z,100988.81
2023-05-19T16:47:33.990Z,100994.53
2023-05-19T16:52:36.039Z,100996.22
2023-05-19T16:57:37.909Z,101001.28
2023-05-19T17:02:39.784Z,100986.94
2023-05-19T17:07:41.476Z,100982.38
2023-05-19T17:12:43.139Z,100987.28
2023-05-19T17:17:44.853Z,100980.69
2023-05-19T17:22:46.604Z,100987.09
2023-05-19T17:27:48.223Z,100984.59
2023-05-19T17:32:50.153Z,100984.06
2023-05-19T17:37:52.294Z,100985.72
2023-05-19T17:42:53.937Z,100987.25
2023-05-19T17:47:55.601Z,100995.66
2023-05-19T17:52:57.455Z,100995.16
2023-05-19T17:57:59.429Z,101005.13
2023-05-19T18:03:01.813Z,100985.00
2023-05-19T18:08:07.149Z,100986.66
2023-05-19T18:13:09.904Z,100981.44
2023-05-19T18:18:12.082Z,100977.91
2023-05-19T18:23:13.876Z,100976.72
2023-05-19T18:28:15.712Z,100978.41
2023-05-19T18:33:18.693Z,100983.09
2023-05-19T18:38:20.351Z,100988.13
2023-05-19T18:43:21.991Z,100986.94
2023-05-19T18:48:25.540Z,100975.94
2023-05-19T18:53:27.172Z,100981.16
2023-05-19T18:58:28.789Z,100987.06
2023-05-19T19:03:30.656Z,101000.84
2023-05-19T19:08:32.314Z,101005.38
2023-05-19T19:13:33.949Z,100999.59
2023-05-19T19:18:36.491Z,100993.88
2023-05-19T19:23:38.234Z,101000.97
2023-05-19T19:28:40.377Z,101010.38
2023-05-19T19:33:43.410Z,101009.31
2023-05-19T19:38:45.111Z,101011.75
2023-05-19T19:43:46.774Z,101004.00
2023-05-19T19:48:48.421Z,101011.13
2023-05-19T19:53:50.029Z,101004.22
2023-05-19T19:58:51.858Z,101002.69
2023-05-19T20:03:57.142Z,101008.91
2023-05-19T20:08:59.411Z,101004.84
2023-05-19T20:14:01.177Z,101003.31
2023-05-19T20:19:02.954Z,101009.13
2023-05-19T20:24:07.112Z,101004.13
2023-05-19T20:29:08.746Z,101011.22
2023-05-19T20:34:10.630Z,101014.53
2023-05-19T20:39:12.436Z,101007.66
2023-05-19T20:44:14.544Z,101006.53
2023-05-19T20:49:16.290Z,101004.06
2023-05-19T20:54:19.691Z,101013.56
2023-05-19T20:59:21.388Z,101017.81
2023-05-19T21:04:23.052Z,101001.44
2023-05-19T21:09:24.908Z,100993.28
2023-05-19T21:14:26.679Z,101002.56
2023-05-19T21:19:28.534Z,100998.38
2023-05-19T21:24:31.005Z,101001.53
2023-05-19T21:29:32.633Z,101001.81
2023-05-19T21:34:34.361Z,101008.44
2023-05-19T21:39:36.099Z,101009.13
2023-05-19T21:44:37.803Z,101005.59
2023-05-19T21:49:40.164Z,101007.84
2023-05-19T21:54:41.793Z,101001.22
2023-05-19T21:59:44.840Z,101001.66
2023-05-19T22:04:46.526Z,101000.78
2023-05-19T22:09:48.928Z,101001.59
2023-05-19T22:14:50.702Z,100999.28
2023-05-19T22:19:52.365Z,100997.59
2023-05-19T22:24:53.999Z,100998.97
2023-05-19T22:29:55.593Z,101004.34
2023-05-19T22:34:57.211Z,101000.28
2023-05-19T22:39:58.809Z,100992.97
2023-05-19T22:45:00.425Z,100989.44
2023-05-19T22:50:02.182Z,100993.16
2023-05-19T22:55:04.616Z,100988.38
2023-05-19T23:00:06.904Z,100983.94
2023-05-19T23:05:08.933Z,100969.88
2023-05-19T23:10:11.162Z,100973.19
2023-05-19T23:15:12.791Z,100983.72
2023-05-19T23:20:14.466Z,100976.50
2023-05-19T23:25:16.330Z,100992.78
2023-05-19T23:30:18.022Z,100988.88
2023-05-19T23:35:20.564Z,100990.09
2023-05-19T23:40:22.316Z,100994.72
2023-05-19T23:45:24.001Z,100986.06
2023-05-19T23:50:25.667Z,100987.66
2023-05-19T23:55:27.412Z,100982.38
